createdAt,value
2019-03-16T00:02:37.497Z,11.47
2019-03-16T00:05:43.325Z,11.29
2019-03-16T00:08:49.070Z,11.27
2019-03-16T00:11:54.930Z,11.24
2019-03-16T00:15:00.710Z,11.23
2019-03-16T00:18:07.767Z,11.30
2019-03-16T00:21:13.555Z,11.22
2019-03-16T00:24:19.257Z,11.25
2019-03-16T00:27:25.120Z,11.30
2019-03-16T00:30:30.846Z,11.41
2019-03-16T00:33:36.616Z,11.47
2019-03-16T00:36:42.372Z,11.50
2019-03-16T00:39:48.199Z,11.52
2019-03-16T00:42:53.913Z,11.44
2019-03-16T00:45:59.682Z,11.40
2019-03-16T00:49:06.508Z,11.42
2019-03-16T00:52:12.328Z,11.43
2019-03-16T00:55:19.176Z,11.38
2019-03-16T00:58:24.953Z,11.42
2019-03-16T01:01:30.745Z,11.09
2019-03-16T01:04:36.485Z,11.00
2019-03-16T01:07:42.312Z,10.68
2019-03-16T01:10:48.037Z,10.82
2019-03-16T01:13:54.761Z,10.91
2019-03-16T01:17:00.492Z,10.91
2019-03-16T01:20:06.877Z,11.22
2019-03-16T01:23:13.637Z,11.15
2019-03-16T01:26:19.400Z,11.13
2019-03-16T01:29:25.128Z,11.06
2019-03-16T01:32:40.173Z,11.19
2019-03-16T01:35:38.282Z,11.25
2019-03-16T01:38:44.210Z,11.12
2019-03-16T01:41:50.075Z,11.00
2019-03-16T01:44:55.835Z,11.02
2019-03-16T01:48:01.565Z,11.09
2019-03-16T01:51:07.280Z,11.08
2019-03-16T01:54:12.988Z,11.12
2019-03-16T01:57:18.797Z,11.31
2019-03-16T02:00:24.568Z,11.34
2019-03-16T02:03:30.306Z,11.31
2019-03-16T02:06:36.034Z,11.15
2019-03-16T02:09:41.774Z,10.97
2019-03-16T02:12:47.601Z,10.96
2019-03-16T02:15:53.360Z,11.09
2019-03-16T02:18:59.279Z,11.26
2019-03-16T02:22:04.997Z,11.05
2019-03-16T02:25:10.914Z,11.35
2019-03-16T02:28:16.733Z,11.15
2019-03-16T02:31:22.464Z,10.85
2019-03-16T02:34:28.216Z,10.98
2019-03-16T02:37:34.011Z,11.09
2019-03-16T02:40:39.773Z,10.92
2019-03-16T02:43:45.525Z,11.04
2019-03-16T02:46:51.551Z,11.14
2019-03-16T02:49:57.280Z,11.25
2019-03-16T02:53:03.034Z,11.10
2019-03-16T02:56:08.767Z,11.22
2019-03-16T02:59:14.508Z,11.29
2019-03-16T03:02:20.230Z,11.22
2019-03-16T03:05:26.006Z,11.01
2019-03-16T03:08:31.890Z,11.12
2019-03-16T03:11:37.663Z,11.22
2019-03-16T03:14:43.500Z,11.21
2019-03-16T03:17:50.545Z,10.75
2019-03-16T03:20:56.305Z,10.93
2019-03-16T03:24:02.065Z,11.12
2019-03-16T03:27:07.866Z,10.96
2019-03-16T03:30:13.878Z,10.89
2019-03-16T03:33:19.593Z,10.98
2019-03-16T03:36:25.493Z,10.90
2019-03-16T03:39:31.507Z,10.52
2019-03-16T03:42:37.270Z,10.73
2019-03-16T03:45:43.056Z,10.98
2019-03-16T03:48:48.968Z,10.98
2019-03-16T03:51:54.769Z,11.12
2019-03-16T03:55:00.924Z,11.02
2019-03-16T03:58:06.952Z,10.77
2019-03-16T04:01:12.993Z,10.93
2019-03-16T04:04:18.879Z,11.02
2019-03-16T04:07:24.668Z,11.03
2019-03-16T04:10:30.486Z,10.75
2019-03-16T04:13:36.296Z,10.86
2019-03-16T04:16:42.107Z,10.53
2019-03-16T04:19:47.941Z,10.53
2019-03-16T04:22:53.782Z,10.64
2019-03-16T04:25:59.521Z,10.47
2019-03-16T04:29:05.316Z,10.53
2019-03-16T04:32:11.035Z,10.57
2019-03-16T04:35:16.825Z,10.79
2019-03-16T04:38:22.609Z,10.87
2019-03-16T04:41:28.362Z,10.72
2019-03-16T04:44:34.069Z,10.83
2019-03-16T04:47:39.836Z,10.72
2019-03-16T04:50:46.572Z,10.86
2019-03-16T04:53:52.323Z,11.00
2019-03-16T04:56:58.188Z,11.14
2019-03-16T05:00:04.609Z,11.05
2019-03-16T05:03:11.569Z,11.16
2019-03-16T05:06:17.378Z,11.22
2019-03-16T05:09:23.159Z,11.26
2019-03-16T05:12:28.904Z,11.18
2019-03-16T05:15:34.665Z,11.35
2019-03-16T05:18:40.565Z,11.38
2019-03-16T05:21:47.288Z,11.45
2019-03-16T05:24:53.103Z,11.47
2019-03-16T05:27:58.873Z,11.51
2019-03-16T05:31:04.640Z,11.37
2019-03-16T05:34:10.412Z,11.37
2019-03-16T05:37:16.121Z,11.44
2019-03-16T05:40:21.832Z,11.41
2019-03-16T05:43:27.535Z,11.55
2019-03-16T05:46:33.246Z,11.63
2019-03-16T05:49:38.977Z,11.55
2019-03-16T05:52:44.757Z,11.82
2019-03-16T05:55:50.457Z,11.93
2019-03-16T05:58:56.166Z,12.07
2019-03-16T06:02:01.899Z,12.12
2019-03-16T06:05:10.768Z,12.05
2019-03-16T06:08:15.413Z,12.29
2019-03-16T06:11:21.134Z,12.21
2019-03-16T06:14:27.017Z,11.97
2019-03-16T06:17:32.813Z,12.37
2019-03-16T06:20:38.659Z,12.48
2019-03-16T06:23:44.408Z,12.68
2019-03-16T06:26:50.170Z,12.95
2019-03-16T06:29:55.995Z,12.97
2019-03-16T06:33:05.451Z,13.05
2019-03-16T06:36:11.221Z,12.99
2019-03-16T06:39:16.997Z,13.25
2019-03-16T06:42:22.723Z,13.10
2019-03-16T06:45:28.477Z,13.06
2019-03-16T06:48:34.196Z,13.29
2019-03-16T06:51:39.934Z,13.47
2019-03-16T06:54:45.679Z,13.23
2019-03-16T06:57:51.374Z,13.54
2019-03-16T07:00:58.254Z,13.66
2019-03-16T07:04:04.111Z,13.42
2019-03-16T07:07:09.850Z,13.82
2019-03-16T07:10:15.666Z,14.13
2019-03-16T07:13:21.425Z,14.52
2019-03-16T07:16:27.272Z,14.62
2019-03-16T07:19:34.021Z,15.30
2019-03-16T07:22:39.868Z,15.71
2019-03-16T07:25:45.611Z,16.29
2019-03-16T07:28:51.343Z,15.66
2019-03-16T07:31:57.108Z,16.30
2019-03-16T07:35:02.980Z,16.63
2019-03-16T07:38:08.734Z,16.68
2019-03-16T07:41:14.772Z,17.14
2019-03-16T07:44:20.525Z,17.56
2019-03-16T07:47:26.384Z,17.78
2019-03-16T07:50:32.107Z,17.72
2019-03-16T07:53:37.862Z,18.05
2019-03-16T07:56:43.577Z,17.93
2019-03-16T07:59:49.731Z,17.48
2019-03-16T08:02:56.012Z,17.49
2019-03-16T08:06:01.899Z,17.78
2019-03-16T08:09:08.160Z,17.70
2019-03-16T08:12:13.979Z,17.81
2019-03-16T08:15:19.796Z,17.74
2019-03-16T08:18:25.759Z,17.66
2019-03-16T08:21:31.588Z,17.56
2019-03-16T08:24:37.306Z,17.46
2019-03-16T08:27:53.675Z,17.78
2019-03-16T08:30:50.609Z,18.12
2019-03-16T08:33:56.379Z,18.02
2019-03-16T08:37:02.257Z,18.04
2019-03-16T08:40:08.404Z,17.90
2019-03-16T08:43:15.137Z,17.74
2019-03-16T08:46:20.957Z,17.66
2019-03-16T08:49:26.875Z,17.35
2019-03-16T08:52:32.698Z,17.65
2019-03-16T08:55:38.558Z,17.74
2019-03-16T08:58:44.256Z,17.70
2019-03-16T09:01:50.000Z,18.59
2019-03-16T09:04:55.862Z,19.38
2019-03-16T09:08:01.619Z,19.77
2019-03-16T09:11:07.508Z,19.98
2019-03-16T09:14:13.394Z,20.21
2019-03-16T09:17:19.088Z,20.32
2019-03-16T09:20:24.878Z,20.32
2019-03-16T09:23:31.796Z,20.34
2019-03-16T09:26:41.358Z,20.64
2019-03-16T09:29:47.171Z,20.81
2019-03-16T09:32:52.982Z,20.59
2019-03-16T09:35:58.704Z,21.01
2019-03-16T09:39:06.107Z,21.32
2019-03-16T09:42:11.820Z,21.22
2019-03-16T09:45:17.622Z,21.30
2019-03-16T09:48:23.331Z,21.21
2019-03-16T09:51:29.021Z,21.52
2019-03-16T09:54:34.775Z,21.02
2019-03-16T09:57:40.456Z,21.26
2019-03-16T10:00:46.209Z,21.24
2019-03-16T10:03:51.934Z,21.02
2019-03-16T10:06:57.674Z,21.32
2019-03-16T10:10:03.401Z,20.87
2019-03-16T10:13:09.109Z,20.74
2019-03-16T10:16:14.905Z,20.46
2019-03-16T10:19:20.700Z,20.36
2019-03-16T10:22:26.427Z,20.25
2019-03-16T10:25:32.156Z,20.63
2019-03-16T10:28:43.583Z,20.97
2019-03-16T10:31:45.291Z,21.53
2019-03-16T10:34:51.046Z,21.64
2019-03-16T10:37:56.759Z,21.76
2019-03-16T10:41:02.558Z,22.01
2019-03-16T10:44:08.244Z,21.47
2019-03-16T10:47:14.141Z,22.06
2019-03-16T10:50:19.889Z,22.55
2019-03-16T10:53:25.649Z,22.06
2019-03-16T10:56:31.390Z,22.17
2019-03-16T10:59:37.169Z,22.38
2019-03-16T11:02:42.924Z,22.19
2019-03-16T11:05:48.639Z,22.08
2019-03-16T11:08:54.449Z,22.41
2019-03-16T11:12:00.226Z,22.28
2019-03-16T11:15:06.232Z,22.98
2019-03-16T11:18:12.037Z,23.24
2019-03-16T11:21:17.751Z,23.08
2019-03-16T11:24:23.598Z,23.15
2019-03-16T11:27:29.368Z,23.20
2019-03-16T11:30:35.185Z,23.39
2019-03-16T11:33:40.873Z,23.26
2019-03-16T11:36:46.671Z,23.17
2019-03-16T11:39:52.366Z,23.31
2019-03-16T11:42:58.105Z,23.48
2019-03-16T11:46:03.854Z,23.31
2019-03-16T11:49:09.613Z,23.04
2019-03-16T11:52:15.330Z,23.21
2019-03-16T11:55:21.074Z,23.20
2019-03-16T11:58:26.817Z,23.37
2019-03-16T12:01:32.530Z,23.55
2019-03-16T12:04:38.295Z,23.43
2019-03-16T12:07:44.020Z,23.32
2019-03-16T12:10:49.877Z,23.27
2019-03-16T12:13:55.552Z,23.05
2019-03-16T12:17:01.294Z,23.25
2019-03-16T12:20:07.813Z,23.37
2019-03-16T12:23:13.572Z,23.28
2019-03-16T12:26:20.275Z,23.15
2019-03-16T12:29:34.083Z,23.26
2019-03-16T12:32:33.600Z,23.19
2019-03-16T12:35:39.351Z,23.22
2019-03-16T12:38:45.101Z,23.19
2019-03-16T12:41:50.905Z,22.95
2019-03-16T12:44:56.864Z,22.76
2019-03-16T12:48:02.636Z,22.73
2019-03-16T12:51:08.443Z,22.72
2019-03-16T12:54:14.375Z,22.70
2019-03-16T12:57:20.079Z,22.65
2019-03-16T13:00:25.875Z,22.55
2019-03-16T13:03:31.608Z,22.63
2019-03-16T13:06:37.324Z,22.53
2019-03-16T13:09:43.035Z,22.35
2019-03-16T13:12:48.759Z,22.38
2019-03-16T13:15:54.512Z,22.27
2019-03-16T13:19:00.231Z,22.21
2019-03-16T13:22:07.018Z,22.12
2019-03-16T13:25:13.916Z,22.11
2019-03-16T13:28:19.649Z,21.91
2019-03-16T13:31:25.447Z,21.86
2019-03-16T13:34:31.211Z,21.77
2019-03-16T13:37:37.025Z,21.60
2019-03-16T13:40:42.945Z,21.37
2019-03-16T13:43:48.706Z,21.21
2019-03-16T13:46:54.431Z,21.17
2019-03-16T13:50:00.340Z,21.09
2019-03-16T13:53:06.067Z,21.00
2019-03-16T13:56:12.047Z,20.97
2019-03-16T13:59:18.039Z,20.92
2019-03-16T14:02:24.151Z,20.85
2019-03-16T14:05:31.000Z,20.87
2019-03-16T14:08:36.755Z,20.82
2019-03-16T14:11:42.507Z,20.89
2019-03-16T14:14:48.234Z,20.84
2019-03-16T14:17:53.963Z,20.77
2019-03-16T14:21:00.000Z,20.78
2019-03-16T14:24:05.880Z,20.80
2019-03-16T14:27:12.749Z,20.72
2019-03-16T14:30:29.445Z,20.85
2019-03-16T14:33:27.182Z,20.87
2019-03-16T14:36:32.877Z,21.00
2019-03-16T14:39:38.569Z,21.35
2019-03-16T14:42:44.575Z,21.47
2019-03-16T14:45:50.624Z,21.63
2019-03-16T14:48:56.526Z,21.65
2019-03-16T14:52:02.262Z,21.67
2019-03-16T14:55:08.213Z,21.64
2019-03-16T14:58:15.100Z,21.37
2019-03-16T15:01:20.848Z,21.25
2019-03-16T15:04:26.699Z,21.19
2019-03-16T15:07:32.551Z,21.04
2019-03-16T15:10:38.298Z,21.04
2019-03-16T15:13:44.053Z,20.90
2019-03-16T15:16:51.021Z,20.82
2019-03-16T15:19:56.802Z,20.79
2019-03-16T15:23:02.648Z,20.63
2019-03-16T15:26:08.432Z,20.55
2019-03-16T15:29:14.233Z,20.51
2019-03-16T15:32:20.038Z,20.45
2019-03-16T15:35:25.998Z,20.37
2019-03-16T15:38:31.815Z,20.32
2019-03-16T15:41:37.701Z,20.27
2019-03-16T15:44:43.582Z,20.32
2019-03-16T15:47:49.326Z,20.22
2019-03-16T15:50:55.144Z,20.09
2019-03-16T15:54:00.929Z,20.06
2019-03-16T15:57:07.220Z,20.17
2019-03-16T16:00:13.851Z,20.01
2019-03-16T16:03:19.939Z,20.02
2019-03-16T16:06:25.843Z,20.04
2019-03-16T16:09:31.688Z,19.93
2019-03-16T16:12:37.556Z,19.89
2019-03-16T16:15:43.429Z,19.83
2019-03-16T16:18:49.415Z,19.85
2019-03-16T16:21:55.561Z,19.71
2019-03-16T16:25:01.322Z,19.61
2019-03-16T16:28:07.154Z,19.61
2019-03-16T16:31:16.645Z,19.53
2019-03-16T16:34:20.591Z,19.53
2019-03-16T16:37:26.552Z,19.44
2019-03-16T16:40:32.288Z,19.39
2019-03-16T16:43:38.037Z,19.10
2019-03-16T16:46:43.891Z,19.07
2019-03-16T16:49:49.734Z,19.15
2019-03-16T16:52:55.807Z,19.25
2019-03-16T16:56:01.537Z,19.18
2019-03-16T16:59:07.334Z,19.30
2019-03-16T17:02:13.049Z,19.22
2019-03-16T17:05:18.997Z,19.22
2019-03-16T17:08:25.874Z,19.22
2019-03-16T17:11:31.721Z,19.09
2019-03-16T17:14:37.657Z,19.15
2019-03-16T17:17:43.588Z,19.14
2019-03-16T17:20:49.374Z,19.04
2019-03-16T17:23:55.207Z,18.88
2019-03-16T17:27:01.126Z,18.97
2019-03-16T17:30:13.057Z,18.90
2019-03-16T17:33:18.935Z,18.80
2019-03-16T17:36:24.676Z,18.74
2019-03-16T17:39:30.566Z,18.74
2019-03-16T17:42:36.454Z,18.74
2019-03-16T17:45:42.193Z,18.68
2019-03-16T17:48:48.093Z,18.60
2019-03-16T17:51:53.937Z,18.70
2019-03-16T17:54:59.750Z,18.58
2019-03-16T17:58:05.660Z,18.41
2019-03-16T18:01:11.497Z,18.44
2019-03-16T18:04:17.351Z,18.44
2019-03-16T18:07:23.132Z,18.49
2019-03-16T18:10:29.132Z,18.49
2019-03-16T18:13:34.929Z,18.49
2019-03-16T18:16:40.728Z,18.32
2019-03-16T18:19:46.813Z,18.32
2019-03-16T18:22:52.553Z,18.32
2019-03-16T18:25:58.391Z,18.13
2019-03-16T18:29:04.248Z,18.13
2019-03-16T18:32:10.152Z,18.08
2019-03-16T18:35:15.916Z,18.10
2019-03-16T18:38:21.708Z,18.16
2019-03-16T18:41:27.457Z,18.02
2019-03-16T18:44:33.231Z,18.06
2019-03-16T18:47:39.157Z,18.05
2019-03-16T18:50:46.001Z,18.05
2019-03-16T18:53:51.859Z,17.92
2019-03-16T18:56:57.617Z,17.97
2019-03-16T19:00:03.669Z,18.00
2019-03-16T19:03:11.677Z,17.77
2019-03-16T19:06:17.022Z,17.69
2019-03-16T19:09:23.259Z,17.74
2019-03-16T19:12:29.243Z,17.66
2019-03-16T19:15:35.071Z,17.61
2019-03-16T19:18:41.010Z,17.53
2019-03-16T19:21:46.917Z,17.53
2019-03-16T19:24:52.697Z,17.56
2019-03-16T19:27:58.631Z,17.54
2019-03-16T19:31:04.545Z,17.60
2019-03-16T19:34:10.478Z,17.47
2019-03-16T19:37:16.460Z,17.58
2019-03-16T19:40:22.411Z,17.47
2019-03-16T19:43:28.193Z,17.57
2019-03-16T19:46:34.019Z,17.52
2019-03-16T19:49:40.821Z,17.43
2019-03-16T19:52:46.834Z,17.51
2019-03-16T19:55:52.938Z,17.54
2019-03-16T19:59:00.872Z,17.59
2019-03-16T20:02:06.424Z,17.55
2019-03-16T20:05:12.582Z,17.63
2019-03-16T20:08:18.537Z,17.57
2019-03-16T20:11:24.584Z,17.76
2019-03-16T20:14:30.502Z,17.78
2019-03-16T20:17:36.431Z,17.79
2019-03-16T20:20:42.436Z,17.77
2019-03-16T20:23:48.288Z,17.77
2019-03-16T20:26:54.238Z,17.82
2019-03-16T20:29:59.985Z,17.88
2019-03-16T20:33:05.960Z,17.73
2019-03-16T20:36:11.770Z,17.80
2019-03-16T20:39:17.738Z,17.78
2019-03-16T20:42:23.561Z,17.65
2019-03-16T20:45:29.567Z,17.76
2019-03-16T20:48:35.619Z,17.85
2019-03-16T20:51:41.489Z,17.89
2019-03-16T20:54:47.275Z,17.80
2019-03-16T20:57:53.102Z,17.69
2019-03-16T21:00:58.992Z,17.55
2019-03-16T21:04:05.068Z,17.50
2019-03-16T21:07:10.848Z,17.50
2019-03-16T21:10:16.725Z,17.39
2019-03-16T21:13:22.409Z,17.40
2019-03-16T21:16:28.245Z,17.47
2019-03-16T21:19:34.167Z,17.29
2019-03-16T21:22:39.971Z,17.35
2019-03-16T21:25:46.052Z,17.38
2019-03-16T21:28:51.985Z,17.50
2019-03-16T21:31:58.438Z,17.51
2019-03-16T21:35:04.354Z,17.41
2019-03-16T21:38:10.146Z,17.42
2019-03-16T21:41:15.922Z,17.29
2019-03-16T21:44:21.868Z,17.37
2019-03-16T21:47:27.687Z,17.47
2019-03-16T21:50:33.583Z,17.38
2019-03-16T21:53:39.398Z,17.31
2019-03-16T21:56:45.317Z,17.39
2019-03-16T21:59:51.175Z,17.25
2019-03-16T22:02:56.929Z,17.42
2019-03-16T22:06:03.093Z,17.32
2019-03-16T22:09:09.914Z,17.42
2019-03-16T22:12:15.751Z,17.43
2019-03-16T22:15:21.507Z,17.34
2019-03-16T22:18:27.362Z,17.49
2019-03-16T22:21:33.221Z,17.48
2019-03-16T22:24:39.132Z,17.54
2019-03-16T22:27:45.054Z,17.61
2019-03-16T22:30:50.798Z,17.48
2019-03-16T22:33:56.657Z,17.51
2019-03-16T22:37:02.599Z,17.54
2019-03-16T22:40:08.642Z,17.59
2019-03-16T22:43:15.619Z,17.53
2019-03-16T22:46:21.585Z,17.58
2019-03-16T22:49:27.353Z,17.34
2019-03-16T22:52:33.320Z,17.31
2019-03-16T22:55:40.087Z,17.37
2019-03-16T22:58:45.881Z,17.46
2019-03-16T23:01:51.757Z,17.38
2019-03-16T23:04:57.530Z,17.38
2019-03-16T23:08:03.368Z,17.42
2019-03-16T23:11:09.133Z,17.42
2019-03-16T23:14:14.906Z,17.34
2019-03-16T23:17:20.608Z,17.43
2019-03-16T23:20:26.458Z,17.29
2019-03-16T23:23:32.399Z,17.40
2019-03-16T23:26:38.979Z,17.36
2019-03-16T23:29:44.984Z,17.35
2019-03-16T23:32:51.129Z,17.21
2019-03-16T23:35:57.314Z,17.08
2019-03-16T23:39:03.841Z,16.98
2019-03-16T23:42:09.673Z,16.84
2019-03-16T23:45:15.634Z,16.88
2019-03-16T23:48:21.470Z,17.00
2019-03-16T23:51:27.276Z,17.18
2019-03-16T23:54:33.206Z,17.03
2019-03-16T23:57:39.126Z,17.18
